Time;durP1;ratioP1;P1;durP2;ratioP2;P2;SDS_P1;SDS_P2;PMS_P1;PMS_P2;Temp;Humidity;BMP_temperature;BMP_pressure;BME280_temperature;BME280_humidity;BME280_pressure;Samples;Min_cycle;Max_cycle;Signal;HPM_P1;HPM_P2
2022/10/02 00:02:12;;;;;;;2.75;1.88;;;;;;;;;;4953209;29;20027;-90
2022/10/02 00:05:07;;;;;;;2.80;1.95;;;;;;;;;;4980192;28;20425;-90
2022/10/02 00:07:44;;;;;;;4.47;2.03;;;;;;;;;;5003610;28;20164;-90
2022/10/02 00:10:17;;;;;;;2.58;1.90;;;;;;;;;;5012506;28;20107;-89
2022/10/02 00:12:44;;;;;;;3.50;1.73;;;;;;;;;;4995871;28;20026;-89
2022/10/02 00:15:14;;;;;;;4.00;2.42;;;;;;;;;;4995719;28;20080;-89
2022/10/02 00:17:42;;;;;;;3.17;2.55;;;;;;;;;;4995585;28;20045;-91
2022/10/02 00:20:15;;;;;;;3.80;2.10;;;;;;;;;;4997418;28;20022;-89
2022/10/02 00:22:45;;;;;;;2.78;1.48;;;;;;;;;;4999991;28;20132;-90
2022/10/02 00:25:16;;;;;;;4.40;1.92;;;;;;;;;;4999690;28;20076;-90
2022/10/02 00:27:53;;;;;;;2.63;1.73;;;;;;;;;;5016924;28;20457;-90
2022/10/02 00:30:18;;;;;;;5.37;2.53;;;;;;;;;;5016752;28;20013;-90
2022/10/02 00:32:44;;;;;;;2.10;1.73;;;;;;;;;;5016929;28;20041;-90
2022/10/02 00:35:18;;;;;;;3.90;1.73;;;;;;;;;;5015794;28;20022;-89
2022/10/02 00:37:46;;;;;;;3.25;1.92;;;;;;;;;;5016803;28;20025;-89
2022/10/02 00:40:17;;;;;;;3.47;1.95;;;;;;;;;;5016679;28;20018;-89
2022/10/02 00:42:52;;;;;;;5.65;2.13;;;;;;;;;;5015863;28;20049;-90
2022/10/02 00:45:36;;;;;;;2.03;1.60;;;;;;;;;;5016614;28;20018;-90
2022/10/02 00:48:14;;;;;;;2.33;1.90;;;;;;;;;;5009352;28;20050;-88
2022/10/02 00:50:45;;;;;;;5.78;1.80;;;;;;;;;;4991877;28;20116;-89
2022/10/02 00:53:20;;;;;;;2.67;1.75;;;;;;;;;;4999389;28;20144;-89
2022/10/02 00:55:45;;;;;;;6.80;2.08;;;;;;;;;;5016546;28;20014;-90
2022/10/02 00:58:10;;;;;;;2.80;1.80;;;;;;;;;;4999138;28;20501;-88
2022/10/02 01:00:35;;;;;;;5.00;1.70;;;;;;;;;;5016098;28;20564;-88
2022/10/02 01:03:13;;;;;;;3.63;1.73;;;;;;;;;;4998886;28;20022;-89
2022/10/02 01:05:38;;;;;;;3.80;1.35;;;;;;;;;;5015178;28;20026;-91
2022/10/02 01:08:05;;;;;;;4.78;1.80;;;;;;;;;;4989112;28;20038;-90
2022/10/02 01:10:30;;;;;;;2.35;1.73;;;;;;;;;;5016098;28;20481;-91
2022/10/02 01:12:56;;;;;;;2.92;1.77;;;;;;;;;;5016156;28;20075;-89
2022/10/02 01:15:27;;;;;;;1.77;1.67;;;;;;;;;;5015814;28;20018;-91
2022/10/02 01:17:52;;;;;;;4.88;2.20;;;;;;;;;;4998840;28;20091;-89
2022/10/02 01:20:20;;;;;;;2.95;1.58;;;;;;;;;;4998352;28;20476;-90
2022/10/02 01:22:49;;;;;;;2.33;1.98;;;;;;;;;;4998188;28;20026;-91
2022/10/02 01:25:14;;;;;;;1.30;1.20;;;;;;;;;;5015229;28;20021;-89
2022/10/02 01:27:39;;;;;;;2.63;1.33;;;;;;;;;;5015879;28;20102;-89
2022/10/02 01:30:10;;;;;;;2.93;1.93;;;;;;;;;;4998000;28;20041;-90
2022/10/02 01:32:39;;;;;;;2.45;1.50;;;;;;;;;;4998425;28;20264;-91
2022/10/02 01:35:04;;;;;;;1.48;1.38;;;;;;;;;;4997992;28;20022;-92
2022/10/02 01:37:31;;;;;;;2.10;0.75;;;;;;;;;;4998124;28;20441;-93
2022/10/02 01:39:59;;;;;;;2.25;1.67;;;;;;;;;;5015920;28;20034;-92
2022/10/02 01:42:24;;;;;;;0.90;0.90;;;;;;;;;;4998250;28;20018;-89
2022/10/02 01:44:49;;;;;;;2.88;1.35;;;;;;;;;;4997907;28;20018;-90
2022/10/02 01:47:18;;;;;;;1.95;0.90;;;;;;;;;;4998130;28;20055;-90
2022/10/02 01:50:02;;;;;;;1.52;0.75;;;;;;;;;;4998251;28;20045;-87
2022/10/02 01:52:33;;;;;;;3.38;1.02;;;;;;;;;;5014643;28;20438;-90
2022/10/02 01:55:07;;;;;;;1.75;0.88;;;;;;;;;;5015671;28;20110;-92
2022/10/02 01:57:37;;;;;;;2.28;1.20;;;;;;;;;;4997917;28;20014;-90
2022/10/02 02:00:09;;;;;;;2.08;1.77;;;;;;;;;;4997583;28;20118;-93
2022/10/02 02:02:57;;;;;;;0.70;0.70;;;;;;;;;;4998329;28;20013;-93
2022/10/02 02:05:28;;;;;;;2.08;1.00;;;;;;;;;;4997876;28;20029;-91
2022/10/02 02:07:53;;;;;;;2.38;0.70;;;;;;;;;;5015291;28;20022;-92
2022/10/02 02:10:24;;;;;;;1.13;0.87;;;;;;;;;;5013968;28;20041;-92
2022/10/02 02:13:01;;;;;;;1.08;0.70;;;;;;;;;;5014290;28;20022;-91
2022/10/02 02:15:39;;;;;;;1.50;1.25;;;;;;;;;;4997666;28;20121;-91
2022/10/02 02:18:07;;;;;;;2.47;0.77;;;;;;;;;;5014095;28;20425;-92
2022/10/02 02:20:37;;;;;;;4.45;1.00;;;;;;;;;;5013672;28;20531;-90
2022/10/02 02:23:04;;;;;;;3.58;1.48;;;;;;;;;;4997849;28;21453;-93
2022/10/02 02:25:31;;;;;;;2.10;0.95;;;;;;;;;;4997878;28;20112;-91
2022/10/02 02:27:58;;;;;;;1.73;1.10;;;;;;;;;;4997507;28;20025;-91
2022/10/02 02:30:24;;;;;;;1.38;0.85;;;;;;;;;;5015049;28;20052;-90
2022/10/02 02:32:52;;;;;;;1.63;0.85;;;;;;;;;;5013612;28;20112;-91
2022/10/02 02:35:21;;;;;;;1.40;1.30;;;;;;;;;;4997491;28;20021;-91
2022/10/02 02:37:47;;;;;;;0.85;0.85;;;;;;;;;;4997486;28;20061;-90
2022/10/02 02:40:15;;;;;;;1.27;0.90;;;;;;;;;;4997761;28;20956;-90
2022/10/02 02:42:42;;;;;;;1.40;1.30;;;;;;;;;;4996522;28;20084;-90
2022/10/02 02:45:13;;;;;;;3.08;0.85;;;;;;;;;;4996877;28;20033;-90
2022/10/02 02:47:39;;;;;;;0.75;0.75;;;;;;;;;;5013296;28;20037;-91
2022/10/02 02:50:08;;;;;;;1.00;0.90;;;;;;;;;;5012720;28;20042;-90
2022/10/02 02:52:40;;;;;;;1.15;1.05;;;;;;;;;;4996880;28;20018;-90
2022/10/02 02:55:14;;;;;;;2.67;0.98;;;;;;;;;;4997051;28;20049;-90
2022/10/02 02:57:44;;;;;;;6.45;0.85;;;;;;;;;;5013978;28;20028;-90
2022/10/02 03:00:11;;;;;;;1.65;1.20;;;;;;;;;;4996737;28;20052;-90
2022/10/02 03:02:36;;;;;;;3.72;0.95;;;;;;;;;;4983183;28;20052;-91
2022/10/02 03:05:04;;;;;;;0.70;0.70;;;;;;;;;;4988524;28;20022;-90
2022/10/02 03:07:29;;;;;;;1.08;0.73;;;;;;;;;;4991150;28;20026;-94
2022/10/02 03:10:07;;;;;;;0.60;0.60;;;;;;;;;;4996519;28;20084;-93
2022/10/02 03:12:51;;;;;;;0.60;0.60;;;;;;;;;;4996152;28;20018;-92
2022/10/02 03:15:22;;;;;;;0.70;0.68;;;;;;;;;;5006925;28;20106;-94
2022/10/02 03:17:48;;;;;;;0.50;0.40;;;;;;;;;;5012981;28;20022;-93
2022/10/02 03:20:20;;;;;;;1.43;0.50;;;;;;;;;;5012942;28;20018;-92
2022/10/02 03:23:12;;;;;;;0.55;0.55;;;;;;;;;;4996706;28;20485;-94
2022/10/02 03:25:37;;;;;;;0.80;0.45;;;;;;;;;;5015219;28;20036;-94
2022/10/02 03:28:09;;;;;;;0.30;0.30;;;;;;;;;;5013227;28;20116;-96
2022/10/02 03:30:35;;;;;;;0.30;0.30;;;;;;;;;;4996527;28;20052;-93
2022/10/02 03:33:02;;;;;;;0.20;0.20;;;;;;;;;;4996215;28;20025;-92
2022/10/02 03:35:28;;;;;;;0.65;0.30;;;;;;;;;;4996298;28;20025;-92
2022/10/02 03:37:55;;;;;;;0.38;0.38;;;;;;;;;;4995836;28;20018;-94
2022/10/02 03:40:24;;;;;;;2.97;0.45;;;;;;;;;;5013738;28;20088;-93
2022/10/02 03:42:50;;;;;;;0.55;0.30;;;;;;;;;;5014397;28;20018;-92
2022/10/02 03:45:16;;;;;;;0.50;0.50;;;;;;;;;;5013700;28;20065;-94
2022/10/02 03:47:41;;;;;;;0.52;0.52;;;;;;;;;;4996585;28;20022;-93
2022/10/02 03:50:07;;;;;;;2.27;0.70;;;;;;;;;;4997199;28;20018;-93
2022/10/02 03:52:33;;;;;;;1.27;1.00;;;;;;;;;;5006528;28;20022;-93
2022/10/02 03:55:01;;;;;;;0.80;0.80;;;;;;;;;;4997313;28;20430;-94
2022/10/02 03:57:26;;;;;;;;;;;;;;;;;;4998365;28;20022;-93
2022/10/02 04:00:04;;;;;;;1.23;1.15;;;;;;;;;;5016527;28;19912;-94
2022/10/02 04:02:35;;;;;;;1.63;0.98;;;;;;;;;;4998121;28;20037;-95
2022/10/02 04:05:18;;;;;;;2.25;1.60;;;;;;;;;;4997647;28;20024;-92
2022/10/02 04:07:44;;;;;;;1.40;1.30;;;;;;;;;;4999315;28;20405;-94
2022/10/02 04:10:13;;;;;;;1.15;1.05;;;;;;;;;;5000995;28;20025;-92
2022/10/02 04:12:44;;;;;;;0.70;0.70;;;;;;;;;;5015352;28;20029;-92
2022/10/02 04:15:18;;;;;;;1.27;1.17;;;;;;;;;;4998487;28;20021;-93
2022/10/02 04:17:48;;;;;;;1.50;1.40;;;;;;;;;;5009470;28;20446;-95
2022/10/02 04:20:18;;;;;;;1.63;1.38;;;;;;;;;;4998578;28;20106;-94
2022/10/02 04:23:10;;;;;;;0.98;0.90;;;;;;;;;;5010046;28;20401;-95
2022/10/02 04:25:41;;;;;;;1.80;1.38;;;;;;;;;;4996989;28;20034;-92
2022/10/02 04:28:14;;;;;;;1.35;1.25;;;;;;;;;;4999296;28;20055;-95
2022/10/02 04:30:39;;;;;;;1.48;1.00;;;;;;;;;;4999819;28;20026;-93
2022/10/02 04:33:11;;;;;;;1.60;1.50;;;;;;;;;;4998378;28;20052;-94
2022/10/02 04:35:43;;;;;;;0.80;0.80;;;;;;;;;;4998245;28;20600;-94
2022/10/02 04:38:27;;;;;;;1.70;1.10;;;;;;;;;;4998744;28;20030;-93
2022/10/02 04:41:25;;;;;;;0.98;0.88;;;;;;;;;;5021132;28;20076;-95
2022/10/02 04:43:53;;;;;;;2.30;0.80;;;;;;;;;;4998424;28;20045;-93
2022/10/02 04:46:31;;;;;;;0.80;0.80;;;;;;;;;;5004895;28;20397;-93
2022/10/02 04:49:15;;;;;;;1.00;1.00;;;;;;;;;;4992232;28;20046;-94
2022/10/02 04:51:43;;;;;;;1.05;1.00;;;;;;;;;;5013928;28;20485;-93
2022/10/02 04:54:14;;;;;;;0.73;0.73;;;;;;;;;;4995707;28;20027;-94
2022/10/02 04:56:40;;;;;;;2.45;1.30;;;;;;;;;;5009932;28;20054;-95
2022/10/02 04:59:11;;;;;;;0.93;0.90;;;;;;;;;;5009447;28;20513;-93
